Terminal Aerodrome Forecast
Issued by NWS Tulsa, OK

Home | Current Version | Previous Version | Text Only | Print | Product List | Glossary On
Versions: 1 2 3 4 5 6 7 8 9 10 11 12 13 14
226
FTUS44 KTSA 081120
TAFTUL
TAF
KTUL 081120Z 0812/0912 30011KT P6SM SKC
     FM081500 33021G35KT P6SM FEW060
     FM090000 32011KT P6SM SKC=

USA.gov is the U.S. government's official web portal to all federal, state and local government web resources and services.